Nearby METAR Reports

 

KSJC - San Jose, California, USA
Distance from station: NE 9mi, 14km
Updated: Tue, 18-May-2021 6:53pm CDT
Clear
Clear
 Wind from N
Wind: N 12 mph , 19 km/h
Temperature: 70°F , 21°C
Dew Point: 45°F , 7°C
Humidity: 40%
Barometer: 30.03 inHg , 1016.9 hPa
Clouds: Clear
Visibility: 10 miles , 16 km
2021/05/18 23:53 KSJC 182353Z 01010KT 10SM CLR 21/07 A3003 RMK AO2 SLP169 T02110072 10228 20183 56010
KNUQ - Moffett Nas/Mtn, California, USA
Distance from station: N 9mi, 14km
Updated: Tue, 13-Apr-2021 5:40pm CDT
NOT Current

 
2021/04/13 22:40 KNUQ 132240Z AUTO RMK AO2 PNO PWINO TSNO
 
KPAO - Palo Alto, California, USA
Distance from station: NNW 14mi, 23km
Updated: Tue, 18-May-2021 6:47pm CDT
Clear
Clear
 Wind from W
Wind: W 17 mph , 28 km/h
Temperature: 70°F , 21°C
Dew Point: 43°F , 6°C
Humidity: 38%
Barometer: 30.04 inHg , 1017.3 hPa
Clouds: Clear
Visibility: 10 miles , 16 km
2021/05/18 23:47 KPAO 182347Z 27015KT 10SM SKC 21/06 A3004
KRHV - San Jose/Reid, California, USA
Distance from station: ENE 12mi, 19km
Updated: Tue, 18-May-2021 6:47pm CDT
Clear
Clear
 Wind from NNW
Wind: NNW 16 mph , 26 km/h, Gust: 23 mph , 37 km/h
Temperature: 73°F , 23°C
Dew Point: 41°F , 5°C
Humidity: 31%
Barometer: 30.03 inHg , 1016.9 hPa
Clouds: Clear
Visibility: 10 miles , 16 km
2021/05/18 23:47 KRHV 182347Z 34014G20KT 10SM SKC 23/05 A3003
 
KOAK - Oakland, California, USA
Distance from station: NNW 31mi, 50km
Updated: Tue, 18-May-2021 6:53pm CDT
Clear
Clear
 Wind from W
Wind: W 22 mph , 35 km/h
Temperature: 64°F , 18°C
Dew Point: 46°F , 8°C
Humidity: 52%
Barometer: 30.04 inHg , 1017.3 hPa
Clouds: Clear
Visibility: 10 miles , 16 km
2021/05/18 23:53 KOAK 182353Z 28019KT 10SM CLR 18/08 A3004 RMK AO2 SLP174 T01780083 10206 20156 58011
KSQL - San Carlos Airpo, California, USA
Distance from station: NW 21mi, 34km
Updated: Tue, 18-May-2021 6:57pm CDT
Clear
Clear
 Wind from SSW
Wind: SSW 15 mph , 24 km/h, Gust: 21 mph , 33 km/h
Temperature: 66°F , 19°C
Dew Point: 43°F , 6°C
Humidity: 43%
Barometer: 30.06 inHg , 1017.9 hPa
Clouds: Clear
Visibility: 10 miles , 16 km
2021/05/18 23:57 KSQL 182357Z 21013G18KT 10SM SKC 19/06 A3006
 
KSFO - San Francisco, California, USA
Distance from station: NW 30mi, 49km
Updated: Tue, 18-May-2021 6:56pm CDT
Few Clouds
Few Clouds
 Wind from W
Wind: W 29 mph , 46 km/h, Gust: 40 mph , 65 km/h
Temperature: 63°F , 17°C
Dew Point: 46°F , 8°C
Humidity: 56%
Barometer: 30.03 inHg , 1016.9 hPa
Clouds: Few Clouds
Visibility: 10 miles , 16 km
Cloud details: Few Clouds 2100 ft
2021/05/18 23:56 KSFO 182356Z 27025G35KT 10SM FEW021 17/08 A3003 RMK AO2 PK WND 28038/2316 SLP170 T01720078 10200 20172 56009
KE16 - San Martin, California, USA
Distance from station: ESE 27mi, 43km
Updated: Tue, 18-May-2021 6:55pm CDT
Clear
Clear
 Wind from NW
Wind: NW 15 mph , 24 km/h, Gust: 22 mph , 35 km/h
Temperature: 77°F , 25°C
Dew Point: 37°F , 3°C
Humidity: 24%
Barometer: 30.01 inHg , 1016.3 hPa
Clouds: Clear
Visibility: 10 miles , 16 km
2021/05/18 23:55 KE16 182355Z AUTO 32013G19KT 270V340 10SM CLR 25/03 A3001 RMK AO2 PWINO PNO
 
KWVI - Watsonville, California, USA
Distance from station: SSE 27mi, 44km
Updated: Tue, 18-May-2021 6:53pm CDT
Clear
Clear
 Wind from varies
Wind: varies 3 mph , 6 km/h
Temperature: 72°F , 22°C
Dew Point: 52°F , 11°C
Humidity: 50%
Barometer: 30.02 inHg , 1016.6 hPa
Clouds: Clear
Visibility: 10 miles , 16 km
2021/05/18 23:53 KWVI 182353Z AUTO VRB03KT 10SM CLR 22/11 A3002 RMK AO2 SLP166 T02170111 10222 20172 56021
KHAF - Half Moon Bay, California, USA
Distance from station: WNW 31mi, 50km
Updated: Tue, 18-May-2021 6:55pm CDT
Clear
Clear
 Wind from NW
Wind: NW 18 mph , 30 km/h
Temperature: 57°F , 14°C
Dew Point: 48°F , 9°C
Humidity: 72%
Barometer: 30.09 inHg , 1019 hPa
Clouds: Clear
Visibility: 7 miles , 11 km
2021/05/18 23:55 KHAF 182355Z AUTO 32016KT 7SM CLR 14/09 A3009 RMK AO2
 
KHWD - Hayward, California, USA
Distance from station: N 28mi, 44km
Updated: Tue, 18-May-2021 6:54pm CDT
Clear
Clear
 Wind from W
Wind: W 15 mph , 24 km/h, Gust: 21 mph , 33 km/h
Temperature: 64°F , 18°C
Dew Point: 48°F , 9°C
Humidity: 56%
Barometer: 30.05 inHg , 1017.6 hPa
Clouds: Clear
Visibility: 10 miles , 16 km
2021/05/18 23:54 KHWD 182354Z 27013G18KT 10SM CLR 18/09 A3005 RMK AO2 SLP184 T01780094 10200 20156 58009
KLVK - Livermore, California, USA
Distance from station: NNE 31mi, 51km
Updated: Tue, 18-May-2021 6:53pm CDT
Clear
Clear
 Wind from WNW
Wind: WNW 13 mph , 20 km/h
Temperature: 72°F , 22°C
Dew Point: 43°F , 6°C
Humidity: 36%
Barometer: 30.01 inHg , 1016.3 hPa
Clouds: Clear
Visibility: 10 miles , 16 km
2021/05/18 23:53 KLVK 182353Z 29011KT 10SM CLR 22/06 A3001 RMK AO2 SLP159 T02170061 10261 20194 56008